createdAt,value
2022-10-05T00:01:53.242Z,8.11
2022-10-05T00:04:23.624Z,8.09
2022-10-05T00:07:01.848Z,7.75
2022-10-05T00:09:31.150Z,7.81
2022-10-05T00:11:58.763Z,7.75
2022-10-05T00:14:33.237Z,7.81
2022-10-05T00:17:02.157Z,7.70
2022-10-05T00:19:33.786Z,7.91
2022-10-05T00:22:09.905Z,7.82
2022-10-05T00:24:37.263Z,7.76
2022-10-05T00:27:17.563Z,7.68
2022-10-05T00:29:46.443Z,7.80
2022-10-05T00:32:14.344Z,7.54
2022-10-05T00:34:42.491Z,7.35
2022-10-05T00:37:10.243Z,7.29
2022-10-05T00:39:39.389Z,7.40
2022-10-05T00:42:09.669Z,7.52
2022-10-05T00:44:54.728Z,7.67
2022-10-05T00:47:37.149Z,7.49
2022-10-05T00:50:39.410Z,7.73
2022-10-05T00:53:31.621Z,9.02
2022-10-05T00:56:05.081Z,9.33
2022-10-05T00:58:52.203Z,8.13
2022-10-05T01:01:33.360Z,7.78
2022-10-05T01:04:10.831Z,7.64
2022-10-05T01:06:48.275Z,7.37
2022-10-05T01:09:32.425Z,7.55
2022-10-05T01:12:05.667Z,7.64
2022-10-05T01:14:54.086Z,7.57
2022-10-05T01:18:03.537Z,7.54
2022-10-05T01:20:43.373Z,7.61
2022-10-05T01:23:29.656Z,7.73
2022-10-05T01:26:08.906Z,7.70
2022-10-05T01:28:49.030Z,7.66
2022-10-05T01:31:22.865Z,7.43
2022-10-05T01:33:59.013Z,7.26
2022-10-05T01:36:34.795Z,7.14
2022-10-05T01:39:22.606Z,7.57
2022-10-05T01:42:15.284Z,7.47
2022-10-05T01:44:54.415Z,7.35
2022-10-05T01:47:26.966Z,7.32
2022-10-05T01:50:04.585Z,7.58
2022-10-05T01:52:54.857Z,7.47
2022-10-05T01:55:52.303Z,7.42
2022-10-05T01:58:29.390Z,7.33
2022-10-05T02:01:23.862Z,7.44
2022-10-05T02:04:02.037Z,7.29
2022-10-05T02:06:38.379Z,7.29
2022-10-05T02:09:11.870Z,7.42
2022-10-05T02:11:40.017Z,7.28
2022-10-05T02:14:11.790Z,7.33
2022-10-05T02:16:41.910Z,7.14
2022-10-05T02:19:15.481Z,7.30
2022-10-05T02:21:47.269Z,7.39
2022-10-05T02:24:19.842Z,7.31
2022-10-05T02:26:49.179Z,7.17
2022-10-05T02:29:18.521Z,7.19
2022-10-05T02:32:00.245Z,7.05
2022-10-05T02:34:37.259Z,7.01
2022-10-05T02:37:26.699Z,7.09
2022-10-05T02:40:03.698Z,6.89
2022-10-05T02:42:41.468Z,7.06
2022-10-05T02:45:18.460Z,7.12
2022-10-05T02:48:09.305Z,7.25
2022-10-05T02:50:57.170Z,7.40
2022-10-05T02:53:53.952Z,7.17
2022-10-05T02:56:49.789Z,7.61
2022-10-05T02:59:40.138Z,7.43
2022-10-05T03:02:27.068Z,7.54
2022-10-05T03:05:12.044Z,7.48
2022-10-05T03:07:47.710Z,7.33
2022-10-05T03:10:33.984Z,7.32
2022-10-05T03:13:10.192Z,7.45
2022-10-05T03:15:57.719Z,7.38
2022-10-05T03:18:59.505Z,7.34
2022-10-05T03:21:57.448Z,7.33
2022-10-05T03:24:33.050Z,7.17
2022-10-05T03:27:03.483Z,7.26
2022-10-05T03:29:46.166Z,7.26
2022-10-05T03:32:26.011Z,7.40
2022-10-05T03:35:02.824Z,7.83
2022-10-05T03:37:42.326Z,8.95
2022-10-05T03:40:22.253Z,9.67
2022-10-05T03:43:03.330Z,9.78
2022-10-05T03:46:08.389Z,10.07
2022-10-05T03:48:59.321Z,9.77
2022-10-05T03:51:33.537Z,7.95
2022-10-05T03:54:09.292Z,9.39
2022-10-05T03:57:07.893Z,9.70
2022-10-05T03:59:44.709Z,9.38
2022-10-05T04:02:47.715Z,7.83
2022-10-05T04:05:21.901Z,7.63
2022-10-05T04:07:58.605Z,7.94
2022-10-05T04:10:27.780Z,8.12
2022-10-05T04:13:03.452Z,7.95
2022-10-05T04:15:45.029Z,7.55
2022-10-05T04:18:24.006Z,7.43
2022-10-05T04:20:56.388Z,7.94
2022-10-05T04:23:38.910Z,8.52
2022-10-05T04:26:10.965Z,7.76
2022-10-05T04:28:56.571Z,7.45
2022-10-05T04:31:36.658Z,7.27
2022-10-05T04:34:18.941Z,7.20
2022-10-05T04:36:55.219Z,7.02
2022-10-05T04:39:59.026Z,7.07
2022-10-05T04:42:43.261Z,7.52
2022-10-05T04:45:38.306Z,7.94
2022-10-05T04:48:16.566Z,8.72
2022-10-05T04:50:58.596Z,8.96
2022-10-05T04:53:59.160Z,8.41
2022-10-05T04:56:43.237Z,8.04
2022-10-05T05:00:07.068Z,8.01
2022-10-05T05:03:10.939Z,7.76
2022-10-05T05:06:04.968Z,7.82
2022-10-05T05:08:35.115Z,8.00
2022-10-05T05:11:15.815Z,8.05
2022-10-05T05:14:12.325Z,7.60
2022-10-05T05:16:40.745Z,7.83
2022-10-05T05:19:18.404Z,7.81
2022-10-05T05:22:03.914Z,7.81
2022-10-05T05:24:40.499Z,7.54
2022-10-05T05:27:20.921Z,8.42
2022-10-05T05:30:23.405Z,9.01
2022-10-05T05:33:00.901Z,8.78
2022-10-05T05:35:34.807Z,8.44
2022-10-05T05:38:06.374Z,9.36
2022-10-05T05:40:40.054Z,9.37
2022-10-05T05:43:27.167Z,9.49
2022-10-05T05:45:54.533Z,7.98
2022-10-05T05:48:30.090Z,7.70
2022-10-05T05:51:05.405Z,7.54
2022-10-05T05:53:43.971Z,7.78
2022-10-05T05:56:14.636Z,7.82
2022-10-05T05:58:50.829Z,7.62
2022-10-05T06:01:34.060Z,7.51
2022-10-05T06:04:11.264Z,8.07
2022-10-05T06:06:41.561Z,8.07
2022-10-05T06:09:35.864Z,8.16
2022-10-05T06:12:10.398Z,8.14
2022-10-05T06:14:58.447Z,8.30
2022-10-05T06:17:35.990Z,8.42
2022-10-05T06:20:06.724Z,8.59
2022-10-05T06:22:37.801Z,8.71
2022-10-05T06:25:11.708Z,8.45
2022-10-05T06:27:58.065Z,8.64
2022-10-05T06:30:33.644Z,8.67
2022-10-05T06:33:12.860Z,8.74
2022-10-05T06:35:59.382Z,9.14
2022-10-05T06:38:48.902Z,9.93
2022-10-05T06:41:39.083Z,9.99
2022-10-05T06:44:15.798Z,10.09
2022-10-05T06:46:50.157Z,10.07
2022-10-05T06:49:20.721Z,10.47
2022-10-05T06:52:09.259Z,10.74
2022-10-05T06:54:36.755Z,10.98
2022-10-05T06:57:30.837Z,11.17
2022-10-05T07:00:00.805Z,11.31
2022-10-05T07:02:45.836Z,11.63
2022-10-05T07:05:37.153Z,11.15
2022-10-05T07:08:42.292Z,11.98
2022-10-05T07:11:51.456Z,11.88
2022-10-05T07:14:32.982Z,11.24
2022-10-05T07:17:12.396Z,11.19
2022-10-05T07:20:01.057Z,11.69
2022-10-05T07:22:46.907Z,12.32
2022-10-05T07:25:36.457Z,12.62
2022-10-05T07:28:08.729Z,12.43
2022-10-05T07:30:52.197Z,12.82
2022-10-05T07:33:34.242Z,13.21
2022-10-05T07:36:53.685Z,13.28
2022-10-05T07:39:58.443Z,12.98
2022-10-05T07:42:52.097Z,12.59
2022-10-05T07:45:24.654Z,12.74
2022-10-05T07:47:58.058Z,13.37
2022-10-05T07:50:35.626Z,13.73
2022-10-05T07:53:21.059Z,13.67
2022-10-05T07:55:52.040Z,14.26
2022-10-05T07:58:27.576Z,14.49
2022-10-05T08:01:00.516Z,14.38
2022-10-05T08:04:16.689Z,14.52
2022-10-05T08:06:56.992Z,14.78
2022-10-05T08:09:43.008Z,14.52
2022-10-05T08:12:16.420Z,14.62
2022-10-05T08:14:48.708Z,14.77
2022-10-05T08:17:26.510Z,14.97
2022-10-05T08:20:06.509Z,15.11
2022-10-05T08:22:41.761Z,15.34
2022-10-05T08:25:20.421Z,15.49
2022-10-05T08:28:08.658Z,15.67
2022-10-05T08:30:53.727Z,15.59
2022-10-05T08:33:22.390Z,15.84
2022-10-05T08:35:55.865Z,15.22
2022-10-05T08:38:29.456Z,15.65
2022-10-05T08:41:04.164Z,15.38
2022-10-05T08:43:59.570Z,15.87
2022-10-05T08:47:06.248Z,16.65
2022-10-05T08:49:39.715Z,17.21
2022-10-05T08:52:15.976Z,16.82
2022-10-05T08:55:10.230Z,15.69
2022-10-05T08:57:56.623Z,15.66
2022-10-05T09:00:25.577Z,15.74
2022-10-05T09:03:37.814Z,15.43
2022-10-05T09:06:33.544Z,15.73
2022-10-05T09:09:15.766Z,16.29
2022-10-05T09:11:57.964Z,17.22
2022-10-05T09:15:31.571Z,17.05
2022-10-05T09:18:23.727Z,16.45
2022-10-05T09:20:55.562Z,17.38
2022-10-05T09:23:37.718Z,18.21
2022-10-05T09:26:23.910Z,18.20
2022-10-05T09:28:57.566Z,18.45
2022-10-05T09:31:53.164Z,17.61
2022-10-05T09:34:41.835Z,17.60
2022-10-05T09:37:30.180Z,18.64
2022-10-05T09:40:03.625Z,19.40
2022-10-05T09:42:46.278Z,19.42
2022-10-05T09:45:21.487Z,18.46
2022-10-05T09:48:17.360Z,18.37
2022-10-05T09:51:29.847Z,18.73
2022-10-05T09:54:35.281Z,18.70
2022-10-05T09:57:14.748Z,18.21
2022-10-05T10:00:21.834Z,19.01
2022-10-05T10:03:19.923Z,18.42
2022-10-05T10:06:01.602Z,20.13
2022-10-05T10:08:41.516Z,18.52
2022-10-05T10:11:25.000Z,17.75
2022-10-05T10:14:14.415Z,19.15
2022-10-05T10:17:06.933Z,19.59
2022-10-05T10:20:05.866Z,18.90
2022-10-05T10:22:51.817Z,19.84
2022-10-05T10:25:34.791Z,21.09
2022-10-05T10:28:24.325Z,20.21
2022-10-05T10:31:18.869Z,22.09
2022-10-05T10:34:11.252Z,19.96
2022-10-05T10:36:48.513Z,20.12
2022-10-05T10:39:25.187Z,20.52
2022-10-05T10:42:26.271Z,20.46
2022-10-05T10:45:08.073Z,20.12
2022-10-05T10:47:35.645Z,19.29
2022-10-05T10:50:30.821Z,19.11
2022-10-05T10:53:23.328Z,19.69
2022-10-05T10:56:11.752Z,19.55
2022-10-05T10:59:10.831Z,20.11
2022-10-05T11:01:56.451Z,20.51
2022-10-05T11:04:47.500Z,22.38
2022-10-05T11:07:39.943Z,20.52
2022-10-05T11:10:31.377Z,19.79
2022-10-05T11:13:17.157Z,19.38
2022-10-05T11:16:03.783Z,20.77
2022-10-05T11:19:09.028Z,22.05
2022-10-05T11:21:42.294Z,21.57
2022-10-05T11:24:38.928Z,21.98
2022-10-05T11:27:46.482Z,20.81
2022-10-05T11:30:23.113Z,20.92
2022-10-05T11:33:28.544Z,21.39
2022-10-05T11:36:18.434Z,22.63
2022-10-05T11:39:17.206Z,22.76
2022-10-05T11:42:22.180Z,21.27
2022-10-05T11:45:21.835Z,21.32
2022-10-05T11:48:11.080Z,21.98
2022-10-05T11:50:44.907Z,21.40
2022-10-05T11:53:33.883Z,21.94
2022-10-05T11:56:25.866Z,22.32
2022-10-05T11:58:57.735Z,21.82
2022-10-05T12:01:46.723Z,22.42
2022-10-05T12:04:47.944Z,22.13
2022-10-05T12:07:24.850Z,23.58
2022-10-05T12:10:23.646Z,21.07
2022-10-05T12:13:13.357Z,20.77
2022-10-05T12:15:48.241Z,21.21
2022-10-05T12:18:31.338Z,21.56
2022-10-05T12:21:09.748Z,20.51
2022-10-05T12:23:46.495Z,20.73
2022-10-05T12:26:27.685Z,21.30
2022-10-05T12:29:07.711Z,21.43
2022-10-05T12:31:52.442Z,20.95
2022-10-05T12:34:32.878Z,22.16
2022-10-05T12:37:28.481Z,23.09
2022-10-05T12:40:24.099Z,21.90
2022-10-05T12:42:57.386Z,21.19
2022-10-05T12:45:47.393Z,20.97
2022-10-05T12:48:18.782Z,20.55
2022-10-05T12:51:09.478Z,20.13
2022-10-05T12:53:57.714Z,20.30
2022-10-05T12:56:50.773Z,19.87
2022-10-05T12:59:35.850Z,19.84
2022-10-05T13:02:32.493Z,20.31
2022-10-05T13:05:11.721Z,21.68
2022-10-05T13:08:12.915Z,21.94
2022-10-05T13:10:51.707Z,21.13
2022-10-05T13:13:43.828Z,20.08
2022-10-05T13:16:21.478Z,20.58
2022-10-05T13:19:11.065Z,20.51
2022-10-05T13:22:13.042Z,20.31
2022-10-05T13:24:43.329Z,21.18
2022-10-05T13:27:24.782Z,21.92
2022-10-05T13:29:56.908Z,21.07
2022-10-05T13:32:36.409Z,20.40
2022-10-05T13:35:13.773Z,20.61
2022-10-05T13:37:50.448Z,20.31
2022-10-05T13:40:29.376Z,21.88
2022-10-05T13:43:04.327Z,21.10
2022-10-05T13:45:49.277Z,20.81
2022-10-05T13:48:52.164Z,20.46
2022-10-05T13:51:25.226Z,20.73
2022-10-05T13:54:01.578Z,22.47
2022-10-05T13:56:35.352Z,21.02
2022-10-05T13:59:34.017Z,22.04
2022-10-05T14:02:11.250Z,21.50
2022-10-05T14:05:34.516Z,21.51
2022-10-05T14:08:04.938Z,22.15
2022-10-05T14:10:46.973Z,23.36
2022-10-05T14:13:21.361Z,23.21
2022-10-05T14:16:13.658Z,21.35
2022-10-05T14:19:18.946Z,22.40
2022-10-05T14:21:59.077Z,23.11
2022-10-05T14:24:44.174Z,20.90
2022-10-05T14:27:26.676Z,21.58
2022-10-05T14:30:02.365Z,23.44
2022-10-05T14:32:32.650Z,23.19
2022-10-05T14:35:17.760Z,24.05
2022-10-05T14:37:58.759Z,24.29
2022-10-05T14:40:35.252Z,23.15
2022-10-05T14:43:32.439Z,24.57
2022-10-05T14:46:16.910Z,24.57
2022-10-05T14:48:46.471Z,24.46
2022-10-05T14:51:31.865Z,25.33
2022-10-05T14:54:01.493Z,25.66
2022-10-05T14:56:36.574Z,25.35
2022-10-05T14:59:43.784Z,24.07
2022-10-05T15:02:45.373Z,24.01
2022-10-05T15:05:21.063Z,24.83
2022-10-05T15:07:49.524Z,24.88
2022-10-05T15:10:42.108Z,24.42
2022-10-05T15:13:15.673Z,24.76
2022-10-05T15:15:43.140Z,25.33
2022-10-05T15:18:10.461Z,24.43
2022-10-05T15:20:44.151Z,24.62
2022-10-05T15:23:26.197Z,23.80
2022-10-05T15:26:06.199Z,24.48
2022-10-05T15:28:48.472Z,24.58
2022-10-05T15:31:26.319Z,25.23
2022-10-05T15:34:01.608Z,24.45
2022-10-05T15:36:35.676Z,24.85
2022-10-05T15:39:21.676Z,24.42
2022-10-05T15:41:59.278Z,25.04
2022-10-05T15:44:52.320Z,25.14
2022-10-05T15:47:35.126Z,24.17
2022-10-05T15:50:26.173Z,24.48
2022-10-05T15:53:20.634Z,24.26
2022-10-05T15:55:56.511Z,24.27
2022-10-05T15:58:46.898Z,24.78
2022-10-05T16:01:36.290Z,24.05
2022-10-05T16:04:16.983Z,24.35
2022-10-05T16:07:12.752Z,25.13
2022-10-05T16:10:01.726Z,24.43
2022-10-05T16:12:57.310Z,24.22
2022-10-05T16:15:37.140Z,24.08
2022-10-05T16:18:41.294Z,23.79
2022-10-05T16:21:18.175Z,23.61
2022-10-05T16:23:58.485Z,24.08
2022-10-05T16:26:45.121Z,23.41
2022-10-05T16:29:54.706Z,23.66
2022-10-05T16:32:25.048Z,23.45
2022-10-05T16:34:56.137Z,23.67
2022-10-05T16:37:41.844Z,23.74
2022-10-05T16:40:38.793Z,23.64
2022-10-05T16:43:32.818Z,23.53
2022-10-05T16:46:32.809Z,23.50
2022-10-05T16:49:22.416Z,22.78
2022-10-05T16:52:10.084Z,23.06
2022-10-05T16:54:47.724Z,22.37
2022-10-05T16:57:20.542Z,22.65
2022-10-05T17:00:15.825Z,22.97
2022-10-05T17:03:10.261Z,22.56
2022-10-05T17:05:38.800Z,22.64
2022-10-05T17:08:12.222Z,22.75
2022-10-05T17:11:00.125Z,22.34
2022-10-05T17:13:33.166Z,22.71
2022-10-05T17:16:15.311Z,22.44
2022-10-05T17:19:06.251Z,22.34
2022-10-05T17:21:44.477Z,22.30
2022-10-05T17:24:11.698Z,22.02
2022-10-05T17:27:18.070Z,22.24
2022-10-05T17:29:52.381Z,21.77
2022-10-05T17:32:19.995Z,22.33
2022-10-05T17:35:00.803Z,20.61
2022-10-05T17:37:32.054Z,20.93
2022-10-05T17:39:59.496Z,20.20
2022-10-05T17:42:27.715Z,20.83
2022-10-05T17:44:59.816Z,20.08
2022-10-05T17:47:56.332Z,19.33
2022-10-05T17:50:59.986Z,19.44
2022-10-05T17:53:57.867Z,20.43
2022-10-05T17:56:25.496Z,20.89
2022-10-05T17:58:58.366Z,21.23
2022-10-05T18:01:30.897Z,21.03
2022-10-05T18:04:11.014Z,21.31
2022-10-05T18:06:41.912Z,20.29
2022-10-05T18:09:21.047Z,21.34
2022-10-05T18:12:12.054Z,21.11
2022-10-05T18:15:38.326Z,21.17
2022-10-05T18:18:33.810Z,20.99
2022-10-05T18:21:14.197Z,21.28
2022-10-05T18:24:00.966Z,21.58
2022-10-05T18:26:38.920Z,21.27
2022-10-05T18:29:14.401Z,21.24
2022-10-05T18:31:50.474Z,21.12
2022-10-05T18:34:39.636Z,21.23
2022-10-05T18:37:27.057Z,20.27
2022-10-05T18:39:59.717Z,20.53
2022-10-05T18:42:56.570Z,21.58
2022-10-05T18:45:29.263Z,21.15
2022-10-05T18:48:15.577Z,21.08
2022-10-05T18:50:50.649Z,21.29
2022-10-05T18:53:32.423Z,21.47
2022-10-05T18:56:13.407Z,20.57
2022-10-05T18:58:57.099Z,21.51
2022-10-05T19:01:50.165Z,20.60
2022-10-05T19:04:22.684Z,20.96
2022-10-05T19:07:15.938Z,20.78
2022-10-05T19:10:28.416Z,21.02
2022-10-05T19:13:17.974Z,21.53
2022-10-05T19:16:01.367Z,21.27
2022-10-05T19:18:44.121Z,20.87
2022-10-05T19:21:28.204Z,21.04
2022-10-05T19:24:05.011Z,20.81
2022-10-05T19:26:35.650Z,21.11
2022-10-05T19:29:39.273Z,21.12
2022-10-05T19:32:29.140Z,20.86
2022-10-05T19:35:11.587Z,19.78
2022-10-05T19:37:50.304Z,20.71
2022-10-05T19:40:41.330Z,21.13
2022-10-05T19:43:40.933Z,21.25
2022-10-05T19:46:21.525Z,20.34
2022-10-05T19:48:52.969Z,20.64
2022-10-05T19:51:35.533Z,20.93
2022-10-05T19:54:15.410Z,21.02
2022-10-05T19:56:49.853Z,20.94
2022-10-05T19:59:19.649Z,20.29
2022-10-05T20:01:52.020Z,20.66
2022-10-05T20:04:35.730Z,20.63
2022-10-05T20:07:03.778Z,21.14
2022-10-05T20:09:49.455Z,21.35
2022-10-05T20:12:16.889Z,21.48
2022-10-05T20:15:04.493Z,21.71
2022-10-05T20:17:50.518Z,20.35
2022-10-05T20:20:43.262Z,19.32
2022-10-05T20:23:23.742Z,18.45
2022-10-05T20:26:11.246Z,17.62
2022-10-05T20:28:38.791Z,18.18
2022-10-05T20:31:08.140Z,18.34
2022-10-05T20:33:35.639Z,19.96
2022-10-05T20:36:05.486Z,21.11
2022-10-05T20:38:40.076Z,18.50
2022-10-05T20:41:08.633Z,19.20
2022-10-05T20:43:39.196Z,18.72
2022-10-05T20:46:07.696Z,17.25
2022-10-05T20:48:36.067Z,17.02
2022-10-05T20:51:04.029Z,18.02
2022-10-05T20:53:31.650Z,18.31
2022-10-05T20:55:59.796Z,18.84
2022-10-05T20:58:27.759Z,18.67
2022-10-05T21:01:14.145Z,19.15
2022-10-05T21:03:43.127Z,19.26
2022-10-05T21:06:10.970Z,19.83
2022-10-05T21:08:39.941Z,19.76
2022-10-05T21:11:09.017Z,19.87
2022-10-05T21:13:38.571Z,19.80
2022-10-05T21:16:08.832Z,19.55
2022-10-05T21:18:37.323Z,18.90
2022-10-05T21:21:04.787Z,18.40
2022-10-05T21:23:35.058Z,18.11
2022-10-05T21:26:03.250Z,17.84
2022-10-05T21:28:31.943Z,17.74
2022-10-05T21:30:59.856Z,17.15
2022-10-05T21:33:27.705Z,17.00
2022-10-05T21:35:55.246Z,16.70
2022-10-05T21:38:22.851Z,16.11
2022-10-05T21:40:51.306Z,15.66
2022-10-05T21:43:18.692Z,15.98
2022-10-05T21:45:46.813Z,17.33
2022-10-05T21:48:15.519Z,17.33
2022-10-05T21:50:43.294Z,15.91
2022-10-05T21:53:12.357Z,16.63
2022-10-05T21:55:41.409Z,17.20
2022-10-05T21:58:09.515Z,17.37
2022-10-05T22:00:36.908Z,16.90
2022-10-05T22:03:04.736Z,16.04
2022-10-05T22:05:32.325Z,16.39
2022-10-05T22:07:59.733Z,16.28
2022-10-05T22:10:27.477Z,15.26
2022-10-05T22:13:02.372Z,14.15
2022-10-05T22:15:30.890Z,15.00
2022-10-05T22:17:59.739Z,15.53
2022-10-05T22:20:27.454Z,15.68
2022-10-05T22:22:55.325Z,15.27
2022-10-05T22:25:22.818Z,15.34
2022-10-05T22:27:50.594Z,16.24
2022-10-05T22:30:18.394Z,17.34
2022-10-05T22:32:45.912Z,17.87
2022-10-05T22:35:14.512Z,18.09
2022-10-05T22:37:42.169Z,17.86
2022-10-05T22:40:11.604Z,18.11
2022-10-05T22:42:40.518Z,16.15
2022-10-05T22:45:08.811Z,15.99
2022-10-05T22:47:36.170Z,16.63
2022-10-05T22:50:03.678Z,16.25
2022-10-05T22:52:31.313Z,15.79
2022-10-05T22:54:58.766Z,15.35
2022-10-05T22:57:26.284Z,15.08
2022-10-05T22:59:54.079Z,15.20
2022-10-05T23:02:21.461Z,14.38
2022-10-05T23:04:48.858Z,14.11
2022-10-05T23:07:16.542Z,14.09
2022-10-05T23:09:43.866Z,14.51
2022-10-05T23:12:11.695Z,14.97
2022-10-05T23:14:39.543Z,15.13
2022-10-05T23:17:08.002Z,15.65
2022-10-05T23:19:35.346Z,15.95
2022-10-05T23:22:03.144Z,16.10
2022-10-05T23:24:30.489Z,16.11
2022-10-05T23:26:57.829Z,16.16
2022-10-05T23:29:25.512Z,16.27
2022-10-05T23:31:53.023Z,17.13
2022-10-05T23:34:20.376Z,17.48
2022-10-05T23:36:48.175Z,17.83
2022-10-05T23:39:15.516Z,17.44
2022-10-05T23:41:44.399Z,17.72
2022-10-05T23:44:12.135Z,17.82
2022-10-05T23:46:39.498Z,17.62
2022-10-05T23:49:07.128Z,17.22
2022-10-05T23:51:34.771Z,16.45
2022-10-05T23:54:02.293Z,15.98
2022-10-05T23:56:29.823Z,15.30
2022-10-05T23:58:57.654Z,14.77
